^^
Meteo Knjazevac Station Historical Data
Daily Summary for May 6, 2022 Units:  English    Metric   Both
Daily Weekly Monthly Yearly Custom
  High: Low: Average:
Temperature: 59.4 °F 43.5 °F 52.3 °F
Dew Point: 56 °F 43.3 °F 51.2 °F
Humidity: 99% 85% 96%
Wind Speed: 10.3mph 0mph 2.6mph
Wind Gust: 12mph - -
Wind- - South
Pressure: 30.13 in 29.98 in -
Precipitation: 0.02 in    
Historical Graphs
 
 
Tabular Data for May 6, 2022
Time Temperature Dew Point Pressure Wind Wind Speed Wind Gust Humidity Rainfall Rate (Hourly) solar Conditions
00:04 44.7 °F 44.4 °F 29.98 in Calm   1 mph 99% 0.00 in 0 W/m2
00:09 44.4 °F 44.2 °F 29.98 in North 0.6 mph   99% 0.00 in 0 W/m2
00:14 44.2 °F 44 °F 29.98 in NNW 0.9 mph 1 mph 99% 0.00 in 0 W/m2
00:19 44.1 °F 43.9 °F 29.98 in NNW 0.2 mph 2 mph 99% 0.00 in 0 W/m2
00:24 44 °F 43.7 °F 29.98 in NW 2.3 mph 2.2 mph 99% 0.00 in 0 W/m2
00:29 43.8 °F 43.5 °F 29.98 in WNW 2.6 mph 3 mph 99% 0.00 in 0 W/m2
00:34 43.6 °F 43.3 °F 29.98 in WNW 2.3 mph 3 mph 99% 0.00 in 0 W/m2
00:39 43.5 °F 43.3 °F 29.98 in WNW 2.2 mph 2 mph 99% 0.00 in 0 W/m2
00:44 43.5 °F 43.3 °F 29.98 in WNW 1.9 mph 2 mph 99% 0.00 in 0 W/m2
00:49 43.5 °F 43.3 °F 29.98 in WNW 2.2 mph 2 mph 99% 0.00 in 0 W/m2
00:54 43.5 °F 43.3 °F 29.98 in NNE 2 mph 3 mph 99% 0.00 in 0 W/m2
00:59 43.5 °F 43.3 °F 29.98 in North 2.3 mph 3 mph 99% 0.00 in 0 W/m2
01:04 43.5 °F 43.3 °F 29.98 in West 0.5 mph 2 mph 99% 0.00 in 0 W/m2
01:09 43.5 °F 43.3 °F 29.98 in NW 2.1 mph 2 mph 99% 0.00 in 0 W/m2
01:14 43.6 °F 43.3 °F 29.98 in NW 0.5 mph 2 mph 99% 0.00 in 0 W/m2
01:19 43.8 °F 43.5 °F 29.98 in WNW 1.1 mph 2 mph 99% 0.00 in 0 W/m2
01:24 43.9 °F 43.6 °F 29.98 in WNW 1.6 mph 1.8 mph 99% 0.00 in 0 W/m2
01:29 44.1 °F 43.8 °F 29.98 in NNE 1.1 mph 2 mph 99% 0.00 in 0 W/m2
01:34 44.3 °F 44.1 °F 29.98 in NE 2.2 mph 2 mph 99% 0.00 in 0 W/m2
01:39 44.6 °F 44.3 °F 29.98 in NE 2.9 mph 2.5 mph 99% 0.00 in 0 W/m2
01:44 45 °F 44.7 °F 29.98 in NNE 1 mph 3 mph 99% 0.00 in 0 W/m2
01:49 45.1 °F 44.9 °F 29.98 in NNE 0.1 mph 2 mph 99% 0.00 in 0 W/m2
01:54 45.3 °F 45.1 °F 29.98 in NNE 0.7 mph 1 mph 99% 0.00 in 0 W/m2
01:59 45.3 °F 45.1 °F 29.98 in NW 2 mph 2 mph 99% 0.00 in 0 W/m2
02:04 45.4 °F 45.2 °F 29.98 in Calm   3 mph 99% 0.00 in 0 W/m2
02:09 45.6 °F 45.3 °F 29.99 in North 0.9 mph 0.9 mph 99% 0.00 in 0 W/m2
02:14 45.7 °F 45.4 °F 29.99 in North 1.7 mph 2 mph 99% 0.00 in 0 W/m2
02:19 45.8 °F 45.5 °F 29.98 in NW 1.6 mph 2 mph 99% 0.00 in 0 W/m2
02:24 45.7 °F 45.4 °F 29.99 in West 1 mph 2 mph 99% 0.00 in 0 W/m2
02:29 45.7 °F 45.4 °F 29.99 in Calm   2 mph 99% 0.00 in 0 W/m2
02:34 45.8 °F 45.5 °F 29.99 in North 0.9 mph 0.2 mph 99% 0.00 in 0 W/m2
02:39 45.9 °F 45.6 °F 29.99 in NNE 2.1 mph 1.8 mph 99% 0.00 in 0 W/m2
02:44 46.1 °F 45.9 °F 29.99 in NNE 3.5 mph 4 mph 99% 0.00 in 0 W/m2
02:49 46.4 °F 46.1 °F 29.99 in NNE 3.3 mph 4 mph 99% 0.00 in 0 W/m2
02:54 46.7 °F 46.4 °F 29.99 in NNE 3.5 mph 4 mph 99% 0.00 in 0 W/m2
02:59 46.9 °F 46.6 °F 29.98 in NNE 3.3 mph 5 mph 99% 0.00 in 0 W/m2
03:04 46.9 °F 46.7 °F 29.98 in NNE 2.3 mph 5 mph 99% 0.00 in 0 W/m2
03:09 46.9 °F 46.7 °F 29.98 in North 2.4 mph 3 mph 99% 0.00 in 0 W/m2
03:14 46.9 °F 46.6 °F 29.98 in NW 1.7 mph 3 mph 99% 0.00 in 0 W/m2
03:19 46.8 °F 46.5 °F 29.99 in NNW 1.9 mph 2 mph 99% 0.00 in 0 W/m2
03:24 46.8 °F 46.5 °F 29.99 in NW 1.9 mph 2 mph 99% 0.00 in 0 W/m2
03:29 46.8 °F 46.5 °F 29.99 in NNW 2.3 mph 3 mph 99% 0.00 in 0 W/m2
03:34 46.9 °F 46.7 °F 29.99 in North 2.3 mph 2 mph 99% 0.00 in 0 W/m2
03:39 47.1 °F 46.9 °F 29.99 in NW 1.6 mph 3 mph 99% 0.00 in 0 W/m2
03:44 47.1 °F 46.9 °F 29.99 in NW 1.6 mph 2 mph 99% 0.00 in 0 W/m2
03:49 47.2 °F 46.9 °F 29.99 in WNW 0.4 mph 2 mph 99% 0.00 in 0 W/m2
03:54 47.3 °F 47 °F 29.99 in Calm   1 mph 99% 0.00 in 0 W/m2
03:59 47.3 °F 47 °F 29.99 in Calm     99% 0.00 in 0 W/m2
04:04 47.5 °F 47.2 °F 29.99 in North 1.5 mph 1.6 mph 99% 0.00 in 0 W/m2
04:09 47.6 °F 47.3 °F 29.99 in NNE 3.7 mph 3 mph 99% 0.00 in 0 W/m2
04:14 47.8 °F 47.5 °F 29.99 in NE 3.5 mph 5 mph 99% 0.00 in 0 W/m2
04:19 48 °F 47.8 °F 29.99 in ENE 3.7 mph 4 mph 99% 0.00 in 0 W/m2
04:24 48 °F 47.8 °F 29.99 in ENE 2.8 mph 5 mph 99% 0.00 in 0 W/m2
04:29 48.1 °F 47.9 °F 29.99 in NE 0.9 mph 4 mph 99% 0.00 in 0 W/m2
04:34 48.4 °F 48.1 °F 29.99 in NNE 1.6 mph 2 mph 99% 0.00 in 0 W/m2
04:39 48.5 °F 48.2 °F 29.99 in NNE 2.4 mph 2.5 mph 99% 0.00 in 0 W/m2
04:44 48.6 °F 48.3 °F 29.99 in NNE 3.2 mph 3 mph 99% 0.00 in 0 W/m2
04:49 48.6 °F 48.3 °F 30.00 in NNE 2 mph 3 mph 99% 0.00 in 0 W/m2
04:54 48.6 °F 48.3 °F 30.00 in NNE 1.9 mph 2 mph 99% 0.00 in 0 W/m2
04:59 48.6 °F 48.3 °F 30.00 in NNW 2.5 mph 3 mph 99% 0.00 in 0 W/m2
05:04 48.6 °F 48.3 °F 30.00 in North 2.1 mph 3 mph 99% 0.00 in 0 W/m2
05:09 48.6 °F 48.3 °F 30.00 in North 2.1 mph 2 mph 99% 0.00 in 0 W/m2
05:14 48.6 °F 48.3 °F 30.00 in NNW 1 mph 2 mph 99% 0.00 in 0 W/m2
05:19 48.6 °F 48.3 °F 30.00 in NNE 0.3 mph 2 mph 99% 0.00 in 0 W/m2
05:24 48.6 °F 48.3 °F 30.01 in NNE 1.8 mph 2 mph 99% 0.00 in 0 W/m2
05:29 48.6 °F 48.4 °F 30.01 in NNE 1.1 mph 2 mph 99% 0.00 in 0 W/m2
05:34 48.7 °F 48.5 °F 30.00 in NE 2.3 mph 2.7 mph 99% 0.00 in 0 W/m2
05:39 48.8 °F 48.6 °F 30.00 in NE 2.7 mph 3 mph 99% 0.00 in 0 W/m2
05:44 48.9 °F 48.7 °F 30.00 in NE 1.7 mph 3 mph 99% 0.00 in 0 W/m2
05:49 48.9 °F 48.7 °F 30.00 in NNE 1.8 mph 2 mph 99% 0.00 in 0 W/m2
05:54 48.9 °F 48.7 °F 30.00 in NNE 2.2 mph 2 mph 99% 0.00 in 0 W/m2
05:59 48.9 °F 48.7 °F 30.00 in North 0.9 mph 2 mph 99% 0.00 in 0 W/m2
06:04 48.9 °F 48.7 °F 30.00 in NW 1.3 mph 1.3 mph 99% 0.00 in 0 W/m2
06:09 48.9 °F 48.7 °F 30.00 in NW 1.5 mph 2 mph 99% 0.00 in 0 W/m2
06:14 48.9 °F 48.7 °F 30.00 in North 1.9 mph 2 mph 99% 0.00 in 0 W/m2
06:19 48.9 °F 48.7 °F 30.00 in NNW 1.8 mph 2 mph 99% 0.00 in 1 W/m2
06:24 48.9 °F 48.7 °F 30.00 in WNW 1.6 mph 2 mph 99% 0.00 in 2 W/m2
06:29 49 °F 48.8 °F 30.01 in NW 0.9 mph 2 mph 99% 0.00 in 2 W/m2
06:34 49.1 °F 48.8 °F 30.01 in NNW 1.1 mph 2 mph 99% 0.00 in 3 W/m2
06:39 49.1 °F 48.8 °F 30.01 in North 1.4 mph 2 mph 99% 0.00 in 5 W/m2
06:44 49.2 °F 48.9 °F 30.01 in NNE 2.8 mph 3.1 mph 99% 0.00 in 7 W/m2
06:49 49.3 °F 49 °F 30.01 in NNE 0.7 mph 4 mph 99% 0.00 in 9 W/m2
06:54 49.5 °F 49.2 °F 30.01 in Calm   2 mph 99% 0.00 in 10 W/m2
06:59 49.5 °F 49.2 °F 30.01 in Calm     99% 0.00 in 14 W/m2
07:04 49.5 °F 49.2 °F 30.02 in NNE 0.1 mph   99% 0.00 in 14 W/m2
07:09 49.5 °F 49.2 °F 30.02 in North 0.9 mph 1 mph 99% 0.00 in 16 W/m2
07:14 49.5 °F 49.2 °F 30.02 in Calm   1 mph 99% 0.00 in 18 W/m2
07:19 49.6 °F 49.4 °F 30.02 in NE 0.4 mph 0.2 mph 99% 0.00 in 20 W/m2
07:24 49.6 °F 49.4 °F 30.02 in Calm   1 mph 99% 0.00 in 30 W/m2
07:29 49.6 °F 49.4 °F 30.02 in WSW 1.2 mph 0.7 mph 99% 0.00 in 36 W/m2
07:34 49.6 °F 49.4 °F 30.03 in Calm   2 mph 99% 0.00 in 42 W/m2
07:39 49.7 °F 49.5 °F 30.03 in North 0.8 mph 0.2 mph 99% 0.00 in 58 W/m2
07:44 49.8 °F 49.6 °F 30.03 in North 0.9 mph 1 mph 99% 0.00 in 61 W/m2
07:49 50.1 °F 49.8 °F 30.03 in NNW 0.4 mph 1 mph 99% 0.00 in 61 W/m2
07:54 50.2 °F 49.9 °F 30.03 in Calm   1 mph 99% 0.00 in 49 W/m2
07:59 50.3 °F 50 °F 30.03 in Calm     99% 0.00 in 53 W/m2
08:04 50.4 °F 50.2 °F 30.03 in North 0.3 mph 0.2 mph 99% 0.00 in 48 W/m2
08:09 50.5 °F 50.3 °F 30.03 in Calm   1 mph 99% 0.00 in 51 W/m2
08:14 50.6 °F 50.4 °F 30.03 in Calm     99% 0.00 in 51 W/m2
08:19 50.7 °F 50.4 °F 30.04 in SW 0.6 mph 0.4 mph 99% 0.00 in 48 W/m2
08:24 50.9 °F 50.4 °F 30.04 in Calm   1 mph 98.1% 0.00 in 47 W/m2
08:29 51 °F 50.6 °F 30.04 in Calm     98.7% 0.00 in 51 W/m2
08:34 51.1 °F 50.8 °F 30.04 in SSE 0.7 mph 0.7 mph 99% 0.00 in 78 W/m2
08:39 51.3 °F 51 °F 30.04 in Calm   2 mph 99% 0.00 in 83 W/m2
08:44 51.4 °F 51.2 °F 30.04 in SSW 1.9 mph 1.8 mph 99% 0.00 in 90 W/m2
08:49 51.6 °F 51.3 °F 30.04 in SSW 1.3 mph 2 mph 99% 0.00 in 118 W/m2
08:54 51.8 °F 51.5 °F 30.04 in SW 1.3 mph 2 mph 99% 0.00 in 141 W/m2
08:59 52.2 °F 51.9 °F 30.04 in NW 1.1 mph 2 mph 99% 0.00 in 143 W/m2
09:04 52.3 °F 52.1 °F 30.04 in North 1.4 mph 2 mph 99% 0.00 in 138 W/m2
09:09 52.7 °F 52.4 °F 30.04 in ENE 3 mph 2.2 mph 99% 0.00 in 145 W/m2
09:14 53.1 °F 52.8 °F 30.04 in NNE 4.8 mph 6 mph 99% 0.00 in 144 W/m2
09:19 53.5 °F 53.2 °F 30.04 in North 4 mph 6 mph 99% 0.00 in 160 W/m2
09:24 54 °F 53.7 °F 30.04 in North 1.9 mph 6 mph 99% 0.00 in 156 W/m2
09:29 54.2 °F 53.8 °F 30.04 in North 1.7 mph 2 mph 98.3% 0.00 in 164 W/m2
09:34 54.4 °F 53.9 °F 30.04 in NNW 6.2 mph 4.7 mph 98.2% 0.00 in 164 W/m2
09:39 54.9 °F 54.6 °F 30.04 in North 8.3 mph 8 mph 99% 0.00 in 175 W/m2
09:44 55.4 °F 55 °F 30.04 in North 7.5 mph 9 mph 98.6% 0.00 in 179 W/m2
09:49 55.8 °F 55.3 °F 30.04 in North 6.7 mph 9 mph 98% 0.00 in 218 W/m2
09:54 56.2 °F 55.3 °F 30.04 in North 7.3 mph 7 mph 96.9% 0.00 in 215 W/m2
09:59 56.5 °F 55.3 °F 30.05 in North 6.5 mph 10 mph 95.6% 0.00 in 238 W/m2
10:04 56.8 °F 55.4 °F 30.05 in North 6.7 mph 7 mph 95% 0.00 in 245 W/m2
10:09 57.1 °F 55.5 °F 30.05 in North 8.3 mph 10 mph 94.3% 0.00 in 258 W/m2
10:14 57.5 °F 55.7 °F 30.05 in North 7.7 mph 10 mph 94% 0.00 in 316 W/m2
10:19 57.9 °F 55.9 °F 30.05 in North 7.3 mph 10 mph 93.1% 0.00 in 314 W/m2
10:24 58.4 °F 55.8 °F 30.05 in North 7 mph 8 mph 91.2% 0.00 in 282 W/m2
10:29 58.6 °F 55.8 °F 30.05 in North 6.3 mph 8 mph 90.5% 0.00 in 376 W/m2
10:34 59 °F 56 °F 30.05 in North 8.1 mph 8 mph 89.7% 0.00 in 376 W/m2
10:39 59.4 °F 55.9 °F 30.05 in North 7.7 mph 9 mph 88.4% 0.00 in 308 W/m2
10:44 59.4 °F 55.8 °F 30.05 in North 7.7 mph 12 mph 88% 0.00 in 257 W/m2
10:49 59.3 °F 55.7 °F 30.05 in North 8.2 mph 9 mph 88% 0.00 in 214 W/m2
10:54 59.3 °F 55.8 °F 30.05 in North 7.4 mph 8 mph 88.4% 0.00 in 213 W/m2
10:59 59.2 °F 55.9 °F 30.05 in North 7 mph 8 mph 89% 0.00 in 178 W/m2
11:04 59.1 °F 55.6 °F 30.05 in North 7.9 mph 8 mph 88.2% 0.00 in 125 W/m2
11:09 59 °F 55.4 °F 30.05 in North 6.7 mph 8 mph 88% 0.00 in 106 W/m2
11:14 58.8 °F 55.5 °F 30.05 in North 5.9 mph 8 mph 88.9% 0.00 in 109 W/m2
11:19 58.6 °F 55.4 °F 30.05 in North 7.5 mph 7 mph 89% 0.00 in 140 W/m2
11:24 58.6 °F 55.4 °F 30.05 in North 8.6 mph 9 mph 89% 0.00 in 144 W/m2
11:29 58.6 °F 55.4 °F 30.05 in North 7.2 mph 10 mph 89% 0.00 in 143 W/m2
11:34 58.6 °F 55.4 °F 30.05 in North 8.9 mph 10 mph 89% 0.00 in 140 W/m2
11:39 58.6 °F 55.4 °F 30.05 in North 9.3 mph 11 mph 89% 0.00 in 126 W/m2
11:44 58.5 °F 55.3 °F 30.05 in North 10.3 mph 10 mph 89% 0.00 in 127 W/m2
11:49 58.5 °F 55.2 °F 30.05 in North 7.8 mph 12 mph 89% 0.00 in 123 W/m2
11:54 58.4 °F 55.1 °F 30.05 in North 9 mph 10 mph 89% 0.00 in 107 W/m2
11:59 58.3 °F 55.1 °F 30.05 in North 6.7 mph 9 mph 89% 0.00 in 123 W/m2
12:04 58.3 °F 55.3 °F 30.05 in North 7.6 mph 9 mph 89.5% 0.00 in 149 W/m2
12:09 58.4 °F 55.2 °F 30.05 in North 7.3 mph 10 mph 89.2% 0.00 in 149 W/m2
12:14 58.5 °F 55.2 °F 30.05 in North 8.8 mph 8 mph 89% 0.00 in 137 W/m2
12:19 58.5 °F 55.2 °F 30.05 in North 8.3 mph 10 mph 89% 0.00 in 115 W/m2
12:24 58.5 °F 55.2 °F 30.05 in North 8.1 mph 10 mph 89% 0.00 in 105 W/m2
12:29 58.5 °F 55.2 °F 30.05 in North 5.9 mph 9 mph 89% 0.00 in 107 W/m2
12:34 58.5 °F 55.2 °F 30.05 in North 7.6 mph 7 mph 89% 0.00 in 107 W/m2
12:39 58.5 °F 55.1 °F 30.05 in North 6.8 mph 10 mph 88.5% 0.00 in 95 W/m2
12:44 58.5 °F 55.1 °F 30.05 in North 4.4 mph 8 mph 88.8% 0.00 in 114 W/m2
12:49 58.5 °F 55.2 °F 30.05 in North 4.4 mph 6 mph 89% 0.00 in 132 W/m2
12:54 58.6 °F 55.1 °F 30.05 in North 4.4 mph 6 mph 88.2% 0.00 in 166 W/m2
12:59 58.6 °F 55.1 °F 30.05 in North 7.4 mph 7 mph 88% 0.00 in 183 W/m2
13:04 58.8 °F 54.7 °F 30.05 in North 7.4 mph 11 mph 86.2% 0.00 in 185 W/m2
13:08 59 °F 54.8 °F 30.05 in North 5.2 mph 7 mph 86% 0.00 in 195 W/m2
13:10 59 °F 54.8 °F 30.04 in NNE 2 mph 7 mph 86% 0.00 in 194 W/m2
13:15 59.2 °F 55 °F 30.04 in NNE 3 mph 7 mph 86% 0.00 in 189 W/m2
13:20 59.2 °F 54.7 °F 30.05 in NNE 6 mph 9 mph 85% 0.00 in 173 W/m2
13:25 59.4 °F 54.8 °F 30.05 in NNE 8 mph 11 mph 85% 0.00 in 163 W/m2
13:30 59.4 °F 54.8 °F 30.05 in NNE 3 mph 12 mph 85% 0.00 in 137 W/m2
13:35 59.4 °F 54.8 °F 30.05 in North 2 mph 7 mph 85% 0.00 in 138 W/m2
13:40 59.4 °F 54.8 °F 30.05 in North 2 mph 9 mph 85% 0.00 in 131 W/m2
13:45 59.4 °F 54.8 °F 30.05 in North 3 mph 8 mph 85% 0.00 in 116 W/m2
13:50 59.2 °F 54.7 °F 30.05 in North 3 mph 8 mph 85% 0.00 in 81 W/m2
13:55 59.2 °F 54.7 °F 30.05 in North 2 mph 7 mph 85% 0.00 in 58 W/m2
14:00 59 °F 54.5 °F 30.05 in North 6 mph 11 mph 85% 0.00 in 47 W/m2
14:05 58.8 °F 54.3 °F 30.05 in North 3 mph 9 mph 85% 0.00 in 42 W/m2
14:10 58.6 °F 54.1 °F 30.05 in North 2 mph 10 mph 85% 0.00 in 35 W/m2
14:15 58.5 °F 54.3 °F 30.05 in North 2 mph 8 mph 86% 0.00 in 21 W/m2
14:20 58.5 °F 54.3 °F 30.05 in North 5 mph 11 mph 86% 0.00 in 21 W/m2
14:25 58.3 °F 54.1 °F 30.05 in NNE 3 mph 10 mph 86% 0.00 in 22 W/m2
14:30 58.1 °F 54.6 °F 30.06 in NNE 1 mph 7 mph 88% 0.00 in 25 W/m2
14:35 57.9 °F 54.7 °F 30.05 in North 2 mph 6 mph 89% 0.00 in 22 W/m2
14:40 57.7 °F 54.5 °F 30.05 in North 2 mph 7 mph 89% 0.00 in 22 W/m2
14:45 57.6 °F 54.6 °F 30.06 in North 1 mph 5 mph 90% 0.00 in 22 W/m2
14:50 57.4 °F 54.5 °F 30.06 in NNW 3 mph 6 mph 90% 0.00 in 20 W/m2
14:55 57.2 °F 54.6 °F 30.06 in NNW 3 mph 8 mph 91% 0.00 in 15 W/m2
15:00 57 °F 54.4 °F 30.06 in North 3 mph 8 mph 91% 0.00 in 15 W/m2
15:05 56.8 °F 54.2 °F 30.06 in North 2 mph 7 mph 91% 0.00 in 16 W/m2
15:14 56.7 °F 54.4 °F 30.06 in North 7 mph 6 mph 92.1% 0.00 in 14 W/m2
15:19 56.5 °F 54.5 °F 30.06 in NNW 6.2 mph 7 mph 93% 0.00 in 12 W/m2
15:24 56.4 °F 54.4 °F 30.06 in NNW 6.1 mph 7 mph 93% 0.00 in 12 W/m2
15:29 56.3 °F 54.4 °F 30.06 in North 5.8 mph 7 mph 93.5% 0.00 in 12 W/m2
15:34 56.1 °F 54.4 °F 30.06 in North 5.5 mph 7 mph 94% 0.00 in 13 W/m2
15:39 56 °F 54.4 °F 30.06 in NNW 6.1 mph 7 mph 94.4% 0.00 in 13 W/m2
15:44 55.9 °F 54.5 °F 30.06 in NNW 6.2 mph 7 mph 95% 0.00 in 12 W/m2
15:49 55.9 °F 54.4 °F 30.06 in NNW 5.8 mph 7 mph 95% 0.00 in 10 W/m2
15:54 55.8 °F 54.3 °F 30.06 in North 4.9 mph 7 mph 95% 0.00 in 8 W/m2
15:59 55.8 °F 54.3 °F 30.06 in North 3 mph 6 mph 95% 0.00 in 5 W/m2
16:04 55.8 °F 54.3 °F 30.06 in North 2.7 mph 3 mph 95% 0.00 in 4 W/m2
16:09 55.8 °F 54.6 °F 30.06 in NNW 3.3 mph 3 mph 95.9% 0.00 in 3 W/m2
16:14 55.6 °F 54.5 °F 30.06 in NNW 2.3 mph 5 mph 96% 0.00 in 2 W/m2
16:19 55.6 °F 54.5 °F 30.06 in NNW 1.2 mph 2 mph 96.2% 0.00 in 1 W/m2
16:24 55.5 °F 54.8 °F 30.06 in North 1.3 mph 2 mph 97.8% 0.00 in 0 W/m2
16:29 55.2 °F 54.7 °F 30.06 in ENE 2.2 mph 2 mph 98% 0.00 in 0 W/m2
16:34 55.1 °F 54.8 °F 30.06 in SSE 2.3 mph 2 mph 98.9% 0.00 in 0 W/m2
16:39 55 °F 54.7 °F 30.07 in SSE 2.2 mph 3 mph 99% 0.00 in 0 W/m2
16:44 54.9 °F 54.6 °F 30.07 in South 0.6 mph 2 mph 99% 0.00 in 0 W/m2
16:49 54.9 °F 54.6 °F 30.07 in ESE 1.7 mph 2 mph 99% 0.00 in 0 W/m2
16:54 54.6 °F 54.3 °F 30.07 in SE 2.6 mph 2 mph 99% 0.00 in 0 W/m2
16:59 54.4 °F 54.1 °F 30.08 in SSE 2 mph 3 mph 99% 0.00 in 0 W/m2
17:04 54.3 °F 54 °F 30.08 in ESE 1.9 mph 2 mph 99% 0.00 in 0 W/m2
17:09 54.1 °F 53.9 °F 30.08 in SSE 3 mph 2.5 mph 99% 0.00 in 0 W/m2
17:14 54 °F 53.7 °F 30.08 in South 3.3 mph 4 mph 99% 0.00 in 0 W/m2
17:19 54 °F 53.7 °F 30.08 in South 2.6 mph 3 mph 99% 0.00 in 0 W/m2
17:24 53.9 °F 53.6 °F 30.08 in South 2.3 mph 2 mph 99% 0.00 in 0 W/m2
17:29 53.8 °F 53.5 °F 30.08 in South 2.3 mph 3 mph 99% 0.00 in 0 W/m2
17:34 53.7 °F 53.4 °F 30.08 in South 2.3 mph 3 mph 99% 0.00 in 0 W/m2
17:39 53.7 °F 53.4 °F 30.08 in South 1.8 mph 2 mph 99% 0.00 in 0 W/m2
17:44 53.6 °F 53.3 °F 30.08 in SW 1.2 mph 2 mph 99% 0.00 in 0 W/m2
17:49 53.6 °F 53.3 °F 30.08 in West 0.9 mph 2 mph 99% 0.00 in 0 W/m2
17:54 53.5 °F 53.2 °F 30.08 in WSW 0.5 mph 2 mph 99% 0.00 in 0 W/m2
17:59 53.4 °F 53.1 °F 30.08 in North 0.2 mph 1 mph 99% 0.00 in 0 W/m2
18:04 53.4 °F 53.1 °F 30.09 in North 0.6 mph 1 mph 99% 0.00 in 0 W/m2
18:09 53.4 °F 53.1 °F 30.09 in Calm   1 mph 99% 0.00 in 0 W/m2
18:14 53.4 °F 53.1 °F 30.09 in WSW 0.4 mph   99% 0.00 in 0 W/m2
18:19 53.3 °F 53 °F 30.09 in SW 1.8 mph 1.8 mph 99% 0.00 in 0 W/m2
18:24 53.2 °F 53 °F 30.09 in SSW 2.2 mph 2 mph 99% 0.00 in 0 W/m2
18:29 53.2 °F 53 °F 30.09 in SSW 1.7 mph 2 mph 99% 0.00 in 0 W/m2
18:34 53.2 °F 52.9 °F 30.09 in WSW 1.1 mph 2 mph 99% 0.00 in 0 W/m2
18:39 53.1 °F 52.8 °F 30.09 in West 1.3 mph 1 mph 99% 0.00 in 0 W/m2
18:44 53.1 °F 52.8 °F 30.09 in WSW 1.1 mph 2 mph 99% 0.00 in 0 W/m2
18:49 53.1 °F 52.8 °F 30.09 in West 1.2 mph 1 mph 99% 0.00 in 0 W/m2
18:54 53.1 °F 52.8 °F 30.09 in Calm   2 mph 99% 0.00 in 0 W/m2
18:59 53.1 °F 52.8 °F 30.09 in South 0.5 mph 0.4 mph 99% 0.00 in 0 W/m2
19:04 52.9 °F 52.6 °F 30.10 in SSW 0.5 mph 1 mph 99% 0.00 in 0 W/m2
19:09 52.9 °F 52.6 °F 30.10 in SW 0.7 mph 1 mph 99% 0.00 in 0 W/m2
19:14 52.9 °F 52.6 °F 30.10 in SSW 0.3 mph 1 mph 99% 0.00 in 0 W/m2
19:19 52.9 °F 52.6 °F 30.10 in SSW 1.2 mph 2 mph 99% 0.00 in 0 W/m2
19:24 52.9 °F 52.6 °F 30.10 in SW 0.3 mph 2 mph 99% 0.00 in 0 W/m2
19:29 52.9 °F 52.6 °F 30.10 in SSW 0.2 mph 1 mph 99% 0.00 in 0 W/m2
19:34 52.9 °F 52.6 °F 30.10 in SW 1.2 mph 1.1 mph 99% 0.01 in 0 W/m2
19:39 52.8 °F 52.5 °F 30.10 in SW 0.2 mph 2 mph 99% 0.01 in 0 W/m2
19:44 52.7 °F 52.4 °F 30.10 in Calm     99% 0.01 in 0 W/m2
19:49 52.7 °F 52.4 °F 30.10 in Calm     99% 0.01 in 0 W/m2
19:54 52.7 °F 52.4 °F 30.11 in Calm     99% 0.01 in 0 W/m2
19:59 52.7 °F 52.4 °F 30.10 in Calm     99% 0.01 in 0 W/m2
20:04 52.7 °F 52.4 °F 30.11 in Calm     99% 0.01 in 0 W/m2
20:09 52.7 °F 52.4 °F 30.11 in WSW 1.2 mph 0.7 mph 99% 0.01 in 0 W/m2
20:14 52.7 °F 52.4 °F 30.11 in NNW 1.4 mph 2 mph 99% 0.01 in 0 W/m2
20:19 52.7 °F 52.4 °F 30.11 in NNE 2.2 mph 2 mph 99% 0.01 in 0 W/m2
20:24 52.8 °F 52.6 °F 30.11 in NE 1.2 mph 2 mph 99% 0.01 in 0 W/m2
20:29 52.9 °F 52.6 °F 30.11 in ENE 1.8 mph 1.3 mph 99% 0.01 in 0 W/m2
20:34 52.8 °F 52.5 °F 30.11 in NE 0.1 mph 2 mph 99% 0.01 in 0 W/m2
20:39 52.7 °F 52.4 °F 30.11 in Calm     99% 0.00 in 0 W/m2
20:44 52.6 °F 52.3 °F 30.11 in Calm     99% 0.00 in 0 W/m2
20:49 52.5 °F 52.2 °F 30.11 in North 0.4 mph 0.2 mph 99% 0.00 in 0 W/m2
20:54 52.5 °F 52.2 °F 30.11 in Calm   1 mph 99% 0.00 in 0 W/m2
20:59 52.4 °F 52.1 °F 30.12 in North 0.2 mph 0.2 mph 99% 0.00 in 0 W/m2
21:04 52.3 °F 52.1 °F 30.12 in North 0.7 mph 1 mph 99% 0.00 in 0 W/m2
21:09 52.3 °F 52.1 °F 30.12 in Calm   1 mph 99% 0.00 in 0 W/m2
21:14 52.3 °F 52.1 °F 30.12 in West 0.4 mph   99% 0.00 in 0 W/m2
21:19 52.3 °F 52 °F 30.12 in West 0.2 mph 1 mph 99% 0.00 in 0 W/m2
21:24 52.2 °F 51.9 °F 30.12 in NW 1.6 mph 1.3 mph 99% 0.00 in 0 W/m2
21:29 52.2 °F 51.9 °F 30.12 in NW 1.6 mph 2 mph 99% 0.00 in 0 W/m2
21:34 52.2 °F 51.9 °F 30.12 in NW 1.5 mph 2 mph 99% 0.00 in 0 W/m2
21:39 52 °F 51.7 °F 30.12 in NW 2.3 mph 3 mph 99% 0.00 in 0 W/m2
21:44 52 °F 51.7 °F 30.12 in WNW 2.2 mph 3 mph 99% 0.00 in 0 W/m2
21:49 52 °F 51.7 °F 30.12 in WNW 1.5 mph 2 mph 99% 0.00 in 0 W/m2
21:54 51.9 °F 51.6 °F 30.12 in NW 1.8 mph 2 mph 99% 0.00 in 0 W/m2
21:59 51.8 °F 51.6 °F 30.12 in NW 1.2 mph 2 mph 99% 0.00 in 0 W/m2
22:04 51.7 °F 51.4 °F 30.13 in WSW 1.2 mph 2 mph 99% 0.00 in 0 W/m2
22:09 51.6 °F 51.3 °F 30.13 in South 0.3 mph 1 mph 99% 0.00 in 0 W/m2
22:14 51.6 °F 51.3 °F 30.13 in SSW 1.3 mph 1 mph 99% 0.00 in 0 W/m2
22:19 51.6 °F 51.3 °F 30.13 in Calm   2 mph 99% 0.00 in 0 W/m2
22:24 51.6 °F 51.3 °F 30.13 in NW 0.3 mph   99% 0.00 in 0 W/m2
22:29 51.4 °F 51.2 °F 30.13 in Calm   1 mph 99% 0.00 in 0 W/m2
22:34 51.4 °F 51.2 °F 30.13 in West 1.6 mph 0.7 mph 99% 0.00 in 0 W/m2
22:39 51.4 °F 51.2 °F 30.13 in WNW 2 mph 2 mph 99% 0.00 in 0 W/m2
22:44 51.4 °F 51.2 °F 30.13 in WNW 2.9 mph 2.2 mph 99% 0.00 in 0 W/m2
22:49 51.4 °F 51.2 °F 30.13 in WNW 3.8 mph 4 mph 99% 0.00 in 0 W/m2
22:54 51.5 °F 51.2 °F 30.13 in WNW 3.7 mph 5 mph 99% 0.00 in 0 W/m2
Knjazevac, Serbia
Compliments of Weather Underground - 2 mb